RYS101 LDSP-LDZA
Flight info
| Callsign | RYS101 |
|---|---|
| Flight time | 0h 33m |
| Altitude | 20000 |
| Route | SIRMI M725 RUDIK |
| Aircraft | B38M/M-SDE1FGHILORVWXY/HB1 |
Departure
| Time | 2026-04-27 20:18 |
|---|---|
| Airport | Split Saint Jerome Airport (LDSP) |
Arrival
| Time | 2026-04-27 20:51 |
|---|---|
| Airport | Zagreb Franjo Tuđman International Airport (LDZA) |
| Time | Latitude | Longitude | Altitude | Speed | Heading |
|---|---|---|---|---|---|
| 2026-04-27 19:59 | 43.53761 | 16.29928 | 71 ft | 0 kts | 113° |
| 2026-04-27 20:11 | 43.53769 | 16.29905 | 60 ft | 4 kts | 123° |
| 2026-04-27 20:11 | 43.53786 | 16.29877 | 60 ft | 4 kts | 136° |
| 2026-04-27 20:11 | 43.53794 | 16.29867 | 64 ft | 1 kts | 138° |
| 2026-04-27 20:14 | 43.53788 | 16.29871 | 60 ft | 2 kts | 154° |
| 2026-04-27 20:14 | 43.53768 | 16.29859 | 64 ft | 4 kts | 242° |
| 2026-04-27 20:14 | 43.53761 | 16.29800 | 66 ft | 7 kts | 242° |
| 2026-04-27 20:15 | 43.53721 | 16.29726 | 70 ft | 12 kts | 233° |
| 2026-04-27 20:15 | 43.53674 | 16.29641 | 67 ft | 8 kts | 233° |
| 2026-04-27 20:15 | 43.53691 | 16.29560 | 68 ft | 9 kts | 293° |
| 2026-04-27 20:15 | 43.53686 | 16.29458 | 87 ft | 15 kts | 250° |
| 2026-04-27 20:16 | 43.53627 | 16.29318 | 87 ft | 18 kts | 238° |
| 2026-04-27 20:16 | 43.53545 | 16.29169 | 89 ft | 20 kts | 232° |
| 2026-04-27 20:16 | 43.53459 | 16.29011 | 89 ft | 21 kts | 232° |
| 2026-04-27 20:16 | 43.53365 | 16.28843 | 89 ft | 23 kts | 232° |
| 2026-04-27 20:17 | 43.53260 | 16.28658 | 88 ft | 19 kts | 230° |
| 2026-04-27 20:17 | 43.53194 | 16.28610 | 85 ft | 7 kts | 225° |
| 2026-04-27 20:17 | 43.53201 | 16.28578 | 89 ft | 3 kts | 333° |
| 2026-04-27 20:17 | 43.53220 | 16.28585 | 85 ft | 6 kts | 37° |
| 2026-04-27 20:18 | 43.53288 | 16.28705 | 88 ft | 37 kts | 52° |
| 2026-04-27 20:18 | 43.53639 | 16.29334 | 90 ft | 126 kts | 52° |
| 2026-04-27 20:18 | 43.54324 | 16.30562 | 160 ft | 190 kts | 52° |
| 2026-04-27 20:18 | 43.55185 | 16.32115 | 837 ft | 216 kts | 53° |
| 2026-04-27 20:19 | 43.56183 | 16.33741 | 1802 ft | 228 kts | 42° |
| 2026-04-27 20:19 | 43.57580 | 16.34930 | 2583 ft | 247 kts | 20° |
| 2026-04-27 20:19 | 43.59332 | 16.35244 | 3491 ft | 267 kts | 354° |
| 2026-04-27 20:19 | 43.61194 | 16.34596 | 4333 ft | 285 kts | 343° |
| 2026-04-27 20:20 | 43.63002 | 16.33796 | 5175 ft | 254 kts | 341° |
| 2026-04-27 20:20 | 43.64702 | 16.32989 | 5829 ft | 270 kts | 340° |
| 2026-04-27 20:20 | 43.66501 | 16.32070 | 7000 ft | 276 kts | 338° |
| 2026-04-27 20:20 | 43.68241 | 16.31131 | 8631 ft | 268 kts | 340° |
| 2026-04-27 20:21 | 43.70139 | 16.30822 | 9380 ft | 286 kts | 5° |
| 2026-04-27 20:21 | 43.72164 | 16.30983 | 10256 ft | 294 kts | 359° |
| 2026-04-27 20:21 | 43.74268 | 16.30959 | 10949 ft | 312 kts | 359° |
| 2026-04-27 20:21 | 43.76467 | 16.30927 | 11575 ft | 327 kts | 358° |
| 2026-04-27 20:22 | 43.78777 | 16.30892 | 12406 ft | 334 kts | 358° |
| 2026-04-27 20:22 | 43.81106 | 16.30858 | 13429 ft | 336 kts | 358° |
| 2026-04-27 20:22 | 43.83454 | 16.30824 | 14322 ft | 339 kts | 358° |
| 2026-04-27 20:22 | 43.85826 | 16.30789 | 15148 ft | 343 kts | 358° |
| 2026-04-27 20:23 | 43.88223 | 16.30755 | 15964 ft | 346 kts | 358° |
| 2026-04-27 20:23 | 43.90651 | 16.30719 | 16764 ft | 350 kts | 358° |
| 2026-04-27 20:23 | 43.93085 | 16.30684 | 17543 ft | 353 kts | 358° |
| 2026-04-27 20:23 | 43.95499 | 16.30648 | 18298 ft | 357 kts | 358° |
| 2026-04-27 20:24 | 43.97148 | 16.30623 | 18734 ft | 359 kts | 358° |
| 2026-04-27 20:24 | 44.00513 | 16.30574 | 19614 ft | 363 kts | 358° |
| 2026-04-27 20:24 | 44.02197 | 16.30549 | 19914 ft | 368 kts | 358° |
| 2026-04-27 20:24 | 44.05596 | 16.30499 | 20086 ft | 370 kts | 358° |
| 2026-04-27 20:25 | 44.08177 | 16.30461 | 20111 ft | 371 kts | 358° |
| 2026-04-27 20:25 | 44.10763 | 16.30423 | 20119 ft | 371 kts | 358° |
| 2026-04-27 20:25 | 44.13350 | 16.30385 | 20116 ft | 371 kts | 358° |
| 2026-04-27 20:25 | 44.15934 | 16.30377 | 20116 ft | 372 kts | 359° |
| 2026-04-27 20:26 | 44.17683 | 16.30383 | 20129 ft | 372 kts | 359° |
| 2026-04-27 20:26 | 44.20235 | 16.30391 | 20133 ft | 371 kts | 359° |
| 2026-04-27 20:26 | 44.22854 | 16.30398 | 20130 ft | 371 kts | 359° |
| 2026-04-27 20:26 | 44.25404 | 16.30405 | 20134 ft | 371 kts | 359° |
| 2026-04-27 20:27 | 44.27989 | 16.30412 | 20135 ft | 372 kts | 359° |
| 2026-04-27 20:27 | 44.30578 | 16.30419 | 20134 ft | 372 kts | 359° |
| 2026-04-27 20:27 | 44.33163 | 16.30425 | 20147 ft | 372 kts | 359° |
| 2026-04-27 20:27 | 44.35752 | 16.30431 | 20142 ft | 372 kts | 359° |
| 2026-04-27 20:28 | 44.38338 | 16.30438 | 20149 ft | 372 kts | 359° |
| 2026-04-27 20:28 | 44.40928 | 16.30444 | 20147 ft | 372 kts | 358° |
| 2026-04-27 20:28 | 44.43517 | 16.30450 | 20152 ft | 372 kts | 358° |
| 2026-04-27 20:28 | 44.46103 | 16.30457 | 20151 ft | 372 kts | 358° |
| 2026-04-27 20:29 | 44.48690 | 16.30463 | 20153 ft | 372 kts | 358° |
| 2026-04-27 20:29 | 44.51265 | 16.30470 | 20148 ft | 365 kts | 358° |
| 2026-04-27 20:29 | 44.53749 | 16.30476 | 20169 ft | 349 kts | 358° |
| 2026-04-27 20:29 | 44.56126 | 16.30482 | 20054 ft | 339 kts | 358° |
| 2026-04-27 20:30 | 44.58460 | 16.30488 | 19766 ft | 333 kts | 358° |
| 2026-04-27 20:30 | 44.59905 | 16.30491 | 19564 ft | 329 kts | 358° |
| 2026-04-27 20:30 | 44.60132 | 16.30492 | 19530 ft | 329 kts | 358° |
| 2026-04-27 20:30 | 44.60379 | 16.30493 | 19499 ft | 328 kts | 358° |
| 2026-04-27 20:31 | 44.62642 | 16.30498 | 19148 ft | 323 kts | 358° |
| 2026-04-27 20:31 | 44.64880 | 16.30504 | 18813 ft | 319 kts | 358° |
| 2026-04-27 20:31 | 44.67086 | 16.30509 | 18467 ft | 315 kts | 358° |
| 2026-04-27 20:31 | 44.69277 | 16.30514 | 18091 ft | 317 kts | 358° |
| 2026-04-27 20:32 | 44.71500 | 16.30520 | 17711 ft | 321 kts | 358° |
| 2026-04-27 20:32 | 44.73745 | 16.30525 | 17358 ft | 323 kts | 358° |
| 2026-04-27 20:32 | 44.75987 | 16.30531 | 17010 ft | 322 kts | 358° |
| 2026-04-27 20:32 | 44.78223 | 16.30537 | 16675 ft | 320 kts | 358° |
| 2026-04-27 20:33 | 44.80439 | 16.30542 | 16332 ft | 317 kts | 358° |
| 2026-04-27 20:33 | 44.82635 | 16.30548 | 15989 ft | 314 kts | 358° |
| 2026-04-27 20:33 | 44.84810 | 16.30553 | 15651 ft | 311 kts | 358° |
| 2026-04-27 20:33 | 44.86966 | 16.30559 | 15312 ft | 309 kts | 358° |
| 2026-04-27 20:34 | 44.89111 | 16.30564 | 14986 ft | 307 kts | 358° |
| 2026-04-27 20:34 | 44.91247 | 16.30569 | 14650 ft | 305 kts | 358° |
| 2026-04-27 20:34 | 44.93367 | 16.30575 | 14317 ft | 303 kts | 358° |
| 2026-04-27 20:34 | 44.95446 | 16.30580 | 13994 ft | 302 kts | 358° |
| 2026-04-27 20:35 | 44.97541 | 16.30560 | 13618 ft | 300 kts | 357° |
| 2026-04-27 20:35 | 44.99622 | 16.30411 | 13222 ft | 298 kts | 347° |
| 2026-04-27 20:35 | 45.01571 | 16.29496 | 12874 ft | 294 kts | 339° |
| 2026-04-27 20:35 | 45.03486 | 16.28518 | 12582 ft | 290 kts | 339° |
| 2026-04-27 20:36 | 45.05377 | 16.27549 | 12285 ft | 289 kts | 339° |
| 2026-04-27 20:36 | 45.07287 | 16.26566 | 11964 ft | 295 kts | 339° |
| 2026-04-27 20:36 | 45.09227 | 16.25565 | 11631 ft | 298 kts | 339° |
| 2026-04-27 20:36 | 45.11179 | 16.24556 | 11321 ft | 298 kts | 338° |
| 2026-04-27 20:37 | 45.13128 | 16.23548 | 10989 ft | 298 kts | 338° |
| 2026-04-27 20:37 | 45.15080 | 16.22537 | 10676 ft | 298 kts | 338° |
| 2026-04-27 20:37 | 45.17015 | 16.21535 | 10487 ft | 292 kts | 338° |
| 2026-04-27 20:37 | 45.18866 | 16.20575 | 10306 ft | 280 kts | 338° |
| 2026-04-27 20:38 | 45.20660 | 16.19644 | 10105 ft | 269 kts | 338° |
| 2026-04-27 20:38 | 45.22343 | 16.18576 | 9738 ft | 262 kts | 322° |
| 2026-04-27 20:38 | 45.23692 | 16.16892 | 9420 ft | 258 kts | 316° |
| 2026-04-27 20:38 | 45.25032 | 16.15151 | 9135 ft | 264 kts | 316° |
| 2026-04-27 20:39 | 45.26394 | 16.13367 | 8835 ft | 268 kts | 316° |
| 2026-04-27 20:39 | 45.27762 | 16.11564 | 8538 ft | 268 kts | 316° |
| 2026-04-27 20:39 | 45.29123 | 16.09762 | 8255 ft | 267 kts | 316° |
| 2026-04-27 20:39 | 45.30477 | 16.07965 | 7980 ft | 266 kts | 316° |
| 2026-04-27 20:40 | 45.31828 | 16.06168 | 7779 ft | 265 kts | 316° |
| 2026-04-27 20:40 | 45.33176 | 16.04374 | 7610 ft | 265 kts | 316° |
| 2026-04-27 20:40 | 45.34490 | 16.02624 | 7443 ft | 265 kts | 316° |
| 2026-04-27 20:40 | 45.35832 | 16.00833 | 7148 ft | 264 kts | 316° |
| 2026-04-27 20:41 | 45.37163 | 15.99057 | 6811 ft | 261 kts | 316° |
| 2026-04-27 20:41 | 45.38481 | 15.97297 | 6473 ft | 258 kts | 316° |
| 2026-04-27 20:41 | 45.39781 | 15.95560 | 6123 ft | 256 kts | 316° |
| 2026-04-27 20:41 | 45.41077 | 15.93827 | 5775 ft | 254 kts | 316° |
| 2026-04-27 20:42 | 45.42359 | 15.92112 | 5422 ft | 252 kts | 317° |
| 2026-04-27 20:42 | 45.43631 | 15.90410 | 5081 ft | 250 kts | 317° |
| 2026-04-27 20:42 | 45.44804 | 15.88836 | 4773 ft | 248 kts | 317° |
| 2026-04-27 20:42 | 45.46048 | 15.87168 | 4474 ft | 243 kts | 317° |
| 2026-04-27 20:43 | 45.47274 | 15.85523 | 4145 ft | 241 kts | 317° |
| 2026-04-27 20:43 | 45.47892 | 15.84694 | 3975 ft | 240 kts | 317° |
| 2026-04-27 20:44 | 45.48812 | 15.83459 | 3730 ft | 238 kts | 317° |
| 2026-04-27 20:44 | 45.50014 | 15.81844 | 3395 ft | 236 kts | 316° |
| 2026-04-27 20:45 | 45.51201 | 15.80249 | 3126 ft | 229 kts | 317° |
| 2026-04-27 20:45 | 45.52357 | 15.78820 | 3074 ft | 215 kts | 329° |
| 2026-04-27 20:45 | 45.53762 | 15.78252 | 3007 ft | 211 kts | 2° |
| 2026-04-27 20:45 | 45.55166 | 15.78774 | 3001 ft | 207 kts | 28° |
| 2026-04-27 20:46 | 45.56344 | 15.79884 | 3013 ft | 200 kts | 40° |
| 2026-04-27 20:46 | 45.57356 | 15.81223 | 3010 ft | 198 kts | 46° |
| 2026-04-27 20:46 | 45.58300 | 15.82621 | 3005 ft | 198 kts | 47° |
| 2026-04-27 20:46 | 45.59245 | 15.84047 | 3006 ft | 198 kts | 47° |
| 2026-04-27 20:47 | 45.60170 | 15.85446 | 3011 ft | 190 kts | 48° |
| 2026-04-27 20:47 | 45.61070 | 15.86811 | 3025 ft | 188 kts | 48° |
| 2026-04-27 20:47 | 45.61960 | 15.88158 | 3019 ft | 183 kts | 48° |
| 2026-04-27 20:47 | 45.62821 | 15.89463 | 3006 ft | 178 kts | 48° |
| 2026-04-27 20:48 | 45.63667 | 15.90746 | 3009 ft | 177 kts | 48° |
| 2026-04-27 20:48 | 45.64506 | 15.92018 | 2810 ft | 170 kts | 48° |
| 2026-04-27 20:48 | 45.65274 | 15.93182 | 2601 ft | 155 kts | 48° |
| 2026-04-27 20:48 | 45.65999 | 15.94282 | 2411 ft | 150 kts | 48° |
| 2026-04-27 20:49 | 45.66709 | 15.95361 | 2260 ft | 149 kts | 48° |
| 2026-04-27 20:49 | 45.67417 | 15.96435 | 2065 ft | 148 kts | 49° |
| 2026-04-27 20:49 | 45.68118 | 15.97499 | 1862 ft | 147 kts | 49° |
| 2026-04-27 20:49 | 45.68817 | 15.98561 | 1658 ft | 146 kts | 48° |
| 2026-04-27 20:50 | 45.69518 | 15.99621 | 1454 ft | 147 kts | 48° |
| 2026-04-27 20:50 | 45.70202 | 16.00672 | 1277 ft | 146 kts | 47° |
| 2026-04-27 20:50 | 45.70899 | 16.01712 | 1088 ft | 144 kts | 47° |
| 2026-04-27 20:50 | 45.71576 | 16.02764 | 887 ft | 145 kts | 45° |
| 2026-04-27 20:51 | 45.72274 | 16.03808 | 678 ft | 145 kts | 46° |
| 2026-04-27 20:51 | 45.72971 | 16.04854 | 472 ft | 145 kts | 46° |
| 2026-04-27 20:51 | 45.73639 | 16.05884 | 363 ft | 125 kts | 47° |
| 2026-04-27 20:51 | 45.74043 | 16.06496 | 363 ft | 41 kts | 47° |
| 2026-04-27 20:52 | 45.74220 | 16.06767 | 362 ft | 41 kts | 47° |
| 2026-04-27 20:52 | 45.74416 | 16.07064 | 366 ft | 39 kts | 46° |
| 2026-04-27 20:52 | 45.74577 | 16.07310 | 366 ft | 34 kts | 47° |
| 2026-04-27 20:52 | 45.74677 | 16.07489 | 362 ft | 13 kts | 92° |
| 2026-04-27 20:53 | 45.74617 | 16.07595 | 361 ft | 15 kts | 137° |
| 2026-04-27 20:53 | 45.74538 | 16.07700 | 366 ft | 16 kts | 136° |
| 2026-04-27 20:53 | 45.74454 | 16.07814 | 362 ft | 18 kts | 136° |
| 2026-04-27 20:53 | 45.74361 | 16.07907 | 362 ft | 15 kts | 185° |
| 2026-04-27 20:54 | 45.74215 | 16.07721 | 368 ft | 5 kts | 176° |
| 2026-04-27 20:54 | 45.74176 | 16.07764 | 361 ft | 9 kts | 136° |
| 2026-04-27 20:54 | 45.74157 | 16.07789 | 361 ft | 0 kts | 136° |